sensor_id;sensor_type;location;lat;lon;timestamp;P1;durP1;ratioP1;P2;durP2;ratioP2
9080;SDS011;13509;50.760;6.080;2023-04-24T00:01:19;3.03;;;1.47;;
9080;SDS011;13509;50.760;6.080;2023-04-24T00:03:48;3.37;;;1.77;;
9080;SDS011;13509;50.760;6.080;2023-04-24T00:06:17;2.00;;;1.80;;
9080;SDS011;13509;50.760;6.080;2023-04-24T00:08:45;2.00;;;1.60;;
9080;SDS011;13509;50.760;6.080;2023-04-24T00:11:13;4.83;;;1.57;;
9080;SDS011;13509;50.760;6.080;2023-04-24T00:13:41;2.83;;;1.87;;
9080;SDS011;13509;50.760;6.080;2023-04-24T00:16:11;2.37;;;1.90;;
9080;SDS011;13509;50.760;6.080;2023-04-24T00:18:39;4.50;;;2.17;;
9080;SDS011;13509;50.760;6.080;2023-04-24T00:21:07;3.33;;;2.40;;
9080;SDS011;13509;50.760;6.080;2023-04-24T00:23:35;3.33;;;2.83;;
9080;SDS011;13509;50.760;6.080;2023-04-24T00:26:04;5.90;;;3.87;;
9080;SDS011;13509;50.760;6.080;2023-04-24T00:28:32;3.93;;;3.50;;
9080;SDS011;13509;50.760;6.080;2023-04-24T00:31:00;6.40;;;3.90;;
9080;SDS011;13509;50.760;6.080;2023-04-24T00:33:30;5.53;;;3.83;;
9080;SDS011;13509;50.760;6.080;2023-04-24T00:35:58;4.77;;;3.57;;
9080;SDS011;13509;50.760;6.080;2023-04-24T00:38:26;6.50;;;3.60;;
9080;SDS011;13509;50.760;6.080;2023-04-24T00:40:54;6.93;;;4.00;;
9080;SDS011;13509;50.760;6.080;2023-04-24T00:43:22;4.70;;;3.80;;
9080;SDS011;13509;50.760;6.080;2023-04-24T00:45:50;9.60;;;4.73;;
9080;SDS011;13509;50.760;6.080;2023-04-24T00:48:19;8.23;;;4.00;;
9080;SDS011;13509;50.760;6.080;2023-04-24T00:50:49;7.90;;;4.50;;
9080;SDS011;13509;50.760;6.080;2023-04-24T00:53:17;7.57;;;5.17;;
9080;SDS011;13509;50.760;6.080;2023-04-24T00:55:46;6.93;;;4.53;;
9080;SDS011;13509;50.760;6.080;2023-04-24T00:58:14;9.30;;;5.10;;
9080;SDS011;13509;50.760;6.080;2023-04-24T01:00:42;7.87;;;4.60;;
9080;SDS011;13509;50.760;6.080;2023-04-24T01:03:12;8.80;;;5.17;;
9080;SDS011;13509;50.760;6.080;2023-04-24T01:05:41;7.00;;;5.57;;
9080;SDS011;13509;50.760;6.080;2023-04-24T01:08:10;8.93;;;4.93;;
9080;SDS011;13509;50.760;6.080;2023-04-24T01:10:39;8.47;;;4.93;;
9080;SDS011;13509;50.760;6.080;2023-04-24T01:13:08;8.93;;;5.40;;
9080;SDS011;13509;50.760;6.080;2023-04-24T01:15:36;9.33;;;5.23;;
9080;SDS011;13509;50.760;6.080;2023-04-24T01:18:05;9.07;;;5.37;;
9080;SDS011;13509;50.760;6.080;2023-04-24T01:20:33;8.17;;;5.57;;
9080;SDS011;13509;50.760;6.080;2023-04-24T01:23:04;10.43;;;5.77;;
9080;SDS011;13509;50.760;6.080;2023-04-24T01:25:32;10.23;;;5.20;;
9080;SDS011;13509;50.760;6.080;2023-04-24T01:28:00;9.87;;;5.60;;
9080;SDS011;13509;50.760;6.080;2023-04-24T01:30:30;9.80;;;4.83;;
9080;SDS011;13509;50.760;6.080;2023-04-24T01:32:59;9.87;;;5.50;;
9080;SDS011;13509;50.760;6.080;2023-04-24T01:35:27;6.83;;;5.10;;
9080;SDS011;13509;50.760;6.080;2023-04-24T01:37:55;9.20;;;5.33;;
9080;SDS011;13509;50.760;6.080;2023-04-24T01:40:25;9.70;;;5.27;;
9080;SDS011;13509;50.760;6.080;2023-04-24T01:42:53;9.63;;;5.40;;
9080;SDS011;13509;50.760;6.080;2023-04-24T01:45:21;8.03;;;5.13;;
9080;SDS011;13509;50.760;6.080;2023-04-24T01:47:49;10.23;;;6.43;;
9080;SDS011;13509;50.760;6.080;2023-04-24T01:50:18;9.03;;;5.60;;
9080;SDS011;13509;50.760;6.080;2023-04-24T01:52:46;9.20;;;6.00;;
9080;SDS011;13509;50.760;6.080;2023-04-24T01:55:14;12.37;;;5.80;;
9080;SDS011;13509;50.760;6.080;2023-04-24T01:57:43;9.03;;;5.97;;
9080;SDS011;13509;50.760;6.080;2023-04-24T02:00:12;9.80;;;5.90;;
9080;SDS011;13509;50.760;6.080;2023-04-24T02:02:40;7.03;;;5.30;;
9080;SDS011;13509;50.760;6.080;2023-04-24T02:05:13;9.20;;;5.70;;
9080;SDS011;13509;50.760;6.080;2023-04-24T02:07:41;7.43;;;5.50;;
9080;SDS011;13509;50.760;6.080;2023-04-24T02:10:09;8.67;;;5.13;;
9080;SDS011;13509;50.760;6.080;2023-04-24T02:12:38;9.40;;;5.60;;
9080;SDS011;13509;50.760;6.080;2023-04-24T02:15:08;8.13;;;5.67;;
9080;SDS011;13509;50.760;6.080;2023-04-24T02:17:36;8.40;;;5.23;;
9080;SDS011;13509;50.760;6.080;2023-04-24T02:20:05;9.77;;;5.53;;
9080;SDS011;13509;50.760;6.080;2023-04-24T02:22:33;10.47;;;5.97;;
9080;SDS011;13509;50.760;6.080;2023-04-24T02:25:02;13.07;;;6.83;;
9080;SDS011;13509;50.760;6.080;2023-04-24T02:27:31;10.10;;;6.27;;
9080;SDS011;13509;50.760;6.080;2023-04-24T02:29:59;9.67;;;5.43;;
9080;SDS011;13509;50.760;6.080;2023-04-24T02:32:29;10.17;;;6.13;;
9080;SDS011;13509;50.760;6.080;2023-04-24T02:34:57;11.23;;;6.50;;
9080;SDS011;13509;50.760;6.080;2023-04-24T02:37:25;13.53;;;7.20;;
9080;SDS011;13509;50.760;6.080;2023-04-24T02:39:53;9.83;;;6.80;;
9080;SDS011;13509;50.760;6.080;2023-04-24T02:42:22;10.20;;;6.20;;
9080;SDS011;13509;50.760;6.080;2023-04-24T02:44:50;9.63;;;6.40;;
9080;SDS011;13509;50.760;6.080;2023-04-24T02:47:18;12.77;;;6.37;;
9080;SDS011;13509;50.760;6.080;2023-04-24T02:49:48;10.93;;;6.53;;
9080;SDS011;13509;50.760;6.080;2023-04-24T02:52:16;15.07;;;6.97;;
9080;SDS011;13509;50.760;6.080;2023-04-24T02:54:44;10.43;;;6.57;;
9080;SDS011;13509;50.760;6.080;2023-04-24T02:57:12;9.27;;;6.30;;
9080;SDS011;13509;50.760;6.080;2023-04-24T02:59:41;9.90;;;6.93;;
9080;SDS011;13509;50.760;6.080;2023-04-24T03:02:09;8.40;;;6.50;;
9080;SDS011;13509;50.760;6.080;2023-04-24T03:04:38;10.30;;;6.83;;
9080;SDS011;13509;50.760;6.080;2023-04-24T03:07:10;8.67;;;6.20;;
9080;SDS011;13509;50.760;6.080;2023-04-24T03:09:38;9.30;;;6.20;;
9080;SDS011;13509;50.760;6.080;2023-04-24T03:12:07;8.67;;;6.10;;
9080;SDS011;13509;50.760;6.080;2023-04-24T03:14:35;8.27;;;5.60;;
9080;SDS011;13509;50.760;6.080;2023-04-24T03:17:03;8.37;;;6.23;;
9080;SDS011;13509;50.760;6.080;2023-04-24T03:19:31;9.73;;;6.20;;
9080;SDS011;13509;50.760;6.080;2023-04-24T03:22:01;12.33;;;6.80;;
9080;SDS011;13509;50.760;6.080;2023-04-24T03:24:30;8.03;;;6.30;;
9080;SDS011;13509;50.760;6.080;2023-04-24T03:26:59;9.17;;;6.87;;
9080;SDS011;13509;50.760;6.080;2023-04-24T03:29:27;8.93;;;6.43;;
9080;SDS011;13509;50.760;6.080;2023-04-24T03:31:55;8.53;;;6.00;;
9080;SDS011;13509;50.760;6.080;2023-04-24T03:34:23;9.27;;;6.60;;
9080;SDS011;13509;50.760;6.080;2023-04-24T03:36:52;10.50;;;6.20;;
9080;SDS011;13509;50.760;6.080;2023-04-24T03:39:20;11.17;;;6.57;;
9080;SDS011;13509;50.760;6.080;2023-04-24T03:41:49;7.13;;;6.07;;
9080;SDS011;13509;50.760;6.080;2023-04-24T03:44:17;9.57;;;6.67;;
9080;SDS011;13509;50.760;6.080;2023-04-24T03:46:46;9.73;;;6.07;;
9080;SDS011;13509;50.760;6.080;2023-04-24T03:49:14;11.13;;;6.87;;
9080;SDS011;13509;50.760;6.080;2023-04-24T03:51:42;9.80;;;6.73;;
9080;SDS011;13509;50.760;6.080;2023-04-24T03:54:10;8.63;;;6.13;;
9080;SDS011;13509;50.760;6.080;2023-04-24T03:56:39;8.77;;;6.60;;
9080;SDS011;13509;50.760;6.080;2023-04-24T03:59:09;13.63;;;7.03;;
9080;SDS011;13509;50.760;6.080;2023-04-24T04:01:37;11.17;;;7.10;;
9080;SDS011;13509;50.760;6.080;2023-04-24T04:04:08;9.83;;;6.90;;
9080;SDS011;13509;50.760;6.080;2023-04-24T04:06:37;9.43;;;6.63;;
9080;SDS011;13509;50.760;6.080;2023-04-24T04:09:05;8.57;;;6.67;;
9080;SDS011;13509;50.760;6.080;2023-04-24T04:11:33;15.30;;;7.53;;
9080;SDS011;13509;50.760;6.080;2023-04-24T04:14:02;9.67;;;6.90;;
9080;SDS011;13509;50.760;6.080;2023-04-24T04:16:32;9.43;;;7.23;;
9080;SDS011;13509;50.760;6.080;2023-04-24T04:19:02;10.07;;;7.13;;
9080;SDS011;13509;50.760;6.080;2023-04-24T04:21:31;8.80;;;7.37;;
9080;SDS011;13509;50.760;6.080;2023-04-24T04:23:59;11.33;;;7.30;;
9080;SDS011;13509;50.760;6.080;2023-04-24T04:26:27;11.80;;;7.13;;
9080;SDS011;13509;50.760;6.080;2023-04-24T04:28:58;10.27;;;7.50;;
9080;SDS011;13509;50.760;6.080;2023-04-24T04:31:27;11.07;;;7.70;;
9080;SDS011;13509;50.760;6.080;2023-04-24T04:33:57;11.97;;;7.67;;
9080;SDS011;13509;50.760;6.080;2023-04-24T04:36:25;13.90;;;8.60;;
9080;SDS011;13509;50.760;6.080;2023-04-24T04:38:55;12.40;;;7.93;;
9080;SDS011;13509;50.760;6.080;2023-04-24T04:41:25;14.83;;;8.00;;
9080;SDS011;13509;50.760;6.080;2023-04-24T04:43:53;10.27;;;7.27;;
9080;SDS011;13509;50.760;6.080;2023-04-24T04:46:24;14.33;;;7.13;;
9080;SDS011;13509;50.760;6.080;2023-04-24T04:48:53;10.37;;;7.87;;
9080;SDS011;13509;50.760;6.080;2023-04-24T04:51:24;13.00;;;8.63;;
9080;SDS011;13509;50.760;6.080;2023-04-24T04:53:52;18.20;;;8.17;;
9080;SDS011;13509;50.760;6.080;2023-04-24T04:56:20;12.63;;;7.50;;
9080;SDS011;13509;50.760;6.080;2023-04-24T04:58:48;11.50;;;7.20;;
9080;SDS011;13509;50.760;6.080;2023-04-24T05:01:16;10.60;;;7.60;;
9080;SDS011;13509;50.760;6.080;2023-04-24T05:03:45;11.27;;;7.27;;
9080;SDS011;13509;50.760;6.080;2023-04-24T05:06:13;8.80;;;6.97;;
9080;SDS011;13509;50.760;6.080;2023-04-24T05:08:43;11.07;;;6.27;;
9080;SDS011;13509;50.760;6.080;2023-04-24T05:11:12;7.53;;;5.67;;
9080;SDS011;13509;50.760;6.080;2023-04-24T05:13:41;8.23;;;5.93;;
9080;SDS011;13509;50.760;6.080;2023-04-24T05:16:09;8.20;;;5.83;;
9080;SDS011;13509;50.760;6.080;2023-04-24T05:18:37;8.07;;;5.50;;
9080;SDS011;13509;50.760;6.080;2023-04-24T05:21:05;7.17;;;5.07;;
9080;SDS011;13509;50.760;6.080;2023-04-24T05:23:33;7.73;;;4.73;;
9080;SDS011;13509;50.760;6.080;2023-04-24T05:26:03;8.13;;;4.97;;
9080;SDS011;13509;50.760;6.080;2023-04-24T05:28:33;6.20;;;5.00;;
9080;SDS011;13509;50.760;6.080;2023-04-24T05:31:03;7.00;;;5.27;;
9080;SDS011;13509;50.760;6.080;2023-04-24T05:33:31;12.00;;;5.97;;
9080;SDS011;13509;50.760;6.080;2023-04-24T05:35:59;9.30;;;5.07;;
9080;SDS011;13509;50.760;6.080;2023-04-24T05:38:27;7.70;;;5.33;;
9080;SDS011;13509;50.760;6.080;2023-04-24T05:40:55;8.60;;;5.80;;
9080;SDS011;13509;50.760;6.080;2023-04-24T05:43:25;6.70;;;5.60;;
9080;SDS011;13509;50.760;6.080;2023-04-24T05:45:53;9.97;;;5.50;;
9080;SDS011;13509;50.760;6.080;2023-04-24T05:48:21;7.37;;;5.30;;
9080;SDS011;13509;50.760;6.080;2023-04-24T05:50:50;9.30;;;5.40;;
9080;SDS011;13509;50.760;6.080;2023-04-24T05:53:18;5.90;;;4.53;;
9080;SDS011;13509;50.760;6.080;2023-04-24T05:55:47;9.67;;;5.03;;
9080;SDS011;13509;50.760;6.080;2023-04-24T05:58:15;7.60;;;5.53;;
9080;SDS011;13509;50.760;6.080;2023-04-24T06:00:45;7.20;;;5.20;;
9080;SDS011;13509;50.760;6.080;2023-04-24T06:03:14;7.70;;;5.10;;
9080;SDS011;13509;50.760;6.080;2023-04-24T06:05:42;7.17;;;5.57;;
9080;SDS011;13509;50.760;6.080;2023-04-24T06:08:11;8.23;;;5.63;;
9080;SDS011;13509;50.760;6.080;2023-04-24T06:10:42;6.43;;;5.00;;
9080;SDS011;13509;50.760;6.080;2023-04-24T06:13:11;5.83;;;5.13;;
9080;SDS011;13509;50.760;6.080;2023-04-24T06:15:39;9.30;;;4.30;;
9080;SDS011;13509;50.760;6.080;2023-04-24T06:18:09;7.70;;;4.60;;
9080;SDS011;13509;50.760;6.080;2023-04-24T06:20:39;6.30;;;4.57;;
9080;SDS011;13509;50.760;6.080;2023-04-24T06:23:07;5.90;;;4.00;;
9080;SDS011;13509;50.760;6.080;2023-04-24T06:25:35;4.97;;;3.70;;
9080;SDS011;13509;50.760;6.080;2023-04-24T06:28:03;7.53;;;4.60;;
9080;SDS011;13509;50.760;6.080;2023-04-24T06:30:32;4.50;;;3.43;;
9080;SDS011;13509;50.760;6.080;2023-04-24T06:33:00;4.53;;;3.80;;
9080;SDS011;13509;50.760;6.080;2023-04-24T06:35:46;4.47;;;3.23;;
9080;SDS011;13509;50.760;6.080;2023-04-24T06:38:14;8.00;;;5.10;;
9080;SDS011;13509;50.760;6.080;2023-04-24T06:40:43;9.53;;;6.20;;
9080;SDS011;13509;50.760;6.080;2023-04-24T06:43:11;5.23;;;3.83;;
9080;SDS011;13509;50.760;6.080;2023-04-24T06:45:40;9.33;;;5.67;;
9080;SDS011;13509;50.760;6.080;2023-04-24T06:48:09;7.03;;;3.90;;
9080;SDS011;13509;50.760;6.080;2023-04-24T06:50:38;9.73;;;5.20;;
9080;SDS011;13509;50.760;6.080;2023-04-24T06:53:07;6.17;;;4.33;;
9080;SDS011;13509;50.760;6.080;2023-04-24T06:55:37;5.13;;;4.10;;
9080;SDS011;13509;50.760;6.080;2023-04-24T06:58:05;7.27;;;3.50;;
9080;SDS011;13509;50.760;6.080;2023-04-24T07:00:34;6.30;;;4.00;;
9080;SDS011;13509;50.760;6.080;2023-04-24T07:03:02;4.47;;;3.33;;
9080;SDS011;13509;50.760;6.080;2023-04-24T07:05:31;5.03;;;3.63;;
9080;SDS011;13509;50.760;6.080;2023-04-24T07:08:01;4.40;;;3.57;;
9080;SDS011;13509;50.760;6.080;2023-04-24T07:10:30;4.17;;;3.13;;
9080;SDS011;13509;50.760;6.080;2023-04-24T07:13:01;8.97;;;5.00;;
9080;SDS011;13509;50.760;6.080;2023-04-24T07:15:29;5.47;;;3.57;;
9080;SDS011;13509;50.760;6.080;2023-04-24T07:17:58;4.33;;;3.43;;
9080;SDS011;13509;50.760;6.080;2023-04-24T07:20:30;6.20;;;4.43;;
9080;SDS011;13509;50.760;6.080;2023-04-24T07:22:59;10.77;;;5.13;;
9080;SDS011;13509;50.760;6.080;2023-04-24T07:25:27;9.33;;;5.40;;
9080;SDS011;13509;50.760;6.080;2023-04-24T07:27:57;4.77;;;3.83;;
9080;SDS011;13509;50.760;6.080;2023-04-24T07:30:25;6.40;;;4.47;;
9080;SDS011;13509;50.760;6.080;2023-04-24T07:32:54;6.10;;;4.30;;
9080;SDS011;13509;50.760;6.080;2023-04-24T07:35:23;5.63;;;4.00;;
9080;SDS011;13509;50.760;6.080;2023-04-24T07:37:52;6.23;;;4.23;;
9080;SDS011;13509;50.760;6.080;2023-04-24T07:40:20;8.57;;;5.17;;
9080;SDS011;13509;50.760;6.080;2023-04-24T07:42:49;6.57;;;4.60;;
9080;SDS011;13509;50.760;6.080;2023-04-24T07:45:18;7.53;;;4.63;;
9080;SDS011;13509;50.760;6.080;2023-04-24T07:47:47;7.33;;;4.83;;
9080;SDS011;13509;50.760;6.080;2023-04-24T07:50:15;13.60;;;7.13;;
9080;SDS011;13509;50.760;6.080;2023-04-24T07:52:43;9.93;;;5.53;;
9080;SDS011;13509;50.760;6.080;2023-04-24T07:55:11;7.03;;;4.90;;
9080;SDS011;13509;50.760;6.080;2023-04-24T07:57:39;6.73;;;4.73;;
9080;SDS011;13509;50.760;6.080;2023-04-24T08:00:08;12.83;;;7.17;;
9080;SDS011;13509;50.760;6.080;2023-04-24T08:02:38;8.07;;;6.13;;
9080;SDS011;13509;50.760;6.080;2023-04-24T08:05:06;7.63;;;5.70;;
9080;SDS011;13509;50.760;6.080;2023-04-24T08:07:35;9.30;;;5.57;;
9080;SDS011;13509;50.760;6.080;2023-04-24T08:10:04;8.03;;;6.00;;
9080;SDS011;13509;50.760;6.080;2023-04-24T08:12:32;8.83;;;6.07;;
9080;SDS011;13509;50.760;6.080;2023-04-24T08:15:00;9.83;;;6.23;;
9080;SDS011;13509;50.760;6.080;2023-04-24T08:17:28;10.20;;;6.23;;
9080;SDS011;13509;50.760;6.080;2023-04-24T08:20:01;7.77;;;5.70;;
9080;SDS011;13509;50.760;6.080;2023-04-24T08:22:31;10.63;;;5.87;;
9080;SDS011;13509;50.760;6.080;2023-04-24T08:24:59;6.80;;;5.27;;
9080;SDS011;13509;50.760;6.080;2023-04-24T08:27:27;8.63;;;5.10;;
9080;SDS011;13509;50.760;6.080;2023-04-24T08:29:56;9.03;;;5.10;;
9080;SDS011;13509;50.760;6.080;2023-04-24T08:32:25;8.10;;;4.80;;
9080;SDS011;13509;50.760;6.080;2023-04-24T08:34:55;6.03;;;4.47;;
9080;SDS011;13509;50.760;6.080;2023-04-24T08:37:25;5.80;;;4.50;;
9080;SDS011;13509;50.760;6.080;2023-04-24T08:39:53;7.63;;;4.40;;
9080;SDS011;13509;50.760;6.080;2023-04-24T08:42:22;9.13;;;4.60;;
9080;SDS011;13509;50.760;6.080;2023-04-24T08:44:50;6.70;;;4.73;;
9080;SDS011;13509;50.760;6.080;2023-04-24T08:47:18;5.97;;;4.47;;
9080;SDS011;13509;50.760;6.080;2023-04-24T08:49:48;6.40;;;4.40;;
9080;SDS011;13509;50.760;6.080;2023-04-24T08:52:17;8.83;;;5.63;;
9080;SDS011;13509;50.760;6.080;2023-04-24T08:54:47;9.60;;;6.20;;
9080;SDS011;13509;50.760;6.080;2023-04-24T08:57:15;11.77;;;6.70;;
9080;SDS011;13509;50.760;6.080;2023-04-24T08:59:44;10.33;;;7.50;;
9080;SDS011;13509;50.760;6.080;2023-04-24T09:02:12;12.60;;;8.03;;
9080;SDS011;13509;50.760;6.080;2023-04-24T09:04:41;13.00;;;8.63;;
9080;SDS011;13509;50.760;6.080;2023-04-24T09:07:11;12.67;;;8.13;;
9080;SDS011;13509;50.760;6.080;2023-04-24T09:09:40;12.93;;;7.67;;
9080;SDS011;13509;50.760;6.080;2023-04-24T09:12:10;14.07;;;7.80;;
9080;SDS011;13509;50.760;6.080;2023-04-24T09:14:39;12.07;;;6.47;;
9080;SDS011;13509;50.760;6.080;2023-04-24T09:17:11;12.97;;;7.63;;
9080;SDS011;13509;50.760;6.080;2023-04-24T09:19:39;10.23;;;7.80;;
9080;SDS011;13509;50.760;6.080;2023-04-24T09:22:09;13.47;;;7.83;;
9080;SDS011;13509;50.760;6.080;2023-04-24T09:24:37;13.63;;;7.23;;
9080;SDS011;13509;50.760;6.080;2023-04-24T09:27:06;15.27;;;8.23;;
9080;SDS011;13509;50.760;6.080;2023-04-24T09:29:37;12.53;;;8.43;;
9080;SDS011;13509;50.760;6.080;2023-04-24T09:32:17;14.60;;;9.00;;
9080;SDS011;13509;50.760;6.080;2023-04-24T09:34:48;10.77;;;6.83;;
9080;SDS011;13509;50.760;6.080;2023-04-24T09:37:27;12.83;;;6.73;;
9080;SDS011;13509;50.760;6.080;2023-04-24T09:42:45;10.80;;;6.50;;
9080;SDS011;13509;50.760;6.080;2023-04-24T09:45:15;12.03;;;6.57;;
9080;SDS011;13509;50.760;6.080;2023-04-24T09:47:43;10.73;;;6.10;;
9080;SDS011;13509;50.760;6.080;2023-04-24T09:50:13;10.93;;;6.00;;
9080;SDS011;13509;50.760;6.080;2023-04-24T09:52:43;9.57;;;5.57;;
9080;SDS011;13509;50.760;6.080;2023-04-24T09:55:16;12.67;;;5.53;;
9080;SDS011;13509;50.760;6.080;2023-04-24T09:57:48;9.43;;;5.63;;
9080;SDS011;13509;50.760;6.080;2023-04-24T10:00:19;12.80;;;6.87;;
9080;SDS011;13509;50.760;6.080;2023-04-24T10:02:49;10.23;;;5.70;;
9080;SDS011;13509;50.760;6.080;2023-04-24T10:05:19;8.53;;;4.83;;
9080;SDS011;13509;50.760;6.080;2023-04-24T10:07:50;10.17;;;4.53;;
9080;SDS011;13509;50.760;6.080;2023-04-24T10:10:19;9.57;;;4.27;;
9080;SDS011;13509;50.760;6.080;2023-04-24T10:12:47;7.67;;;4.10;;
9080;SDS011;13509;50.760;6.080;2023-04-24T10:15:15;8.50;;;4.20;;
9080;SDS011;13509;50.760;6.080;2023-04-24T10:17:48;8.13;;;4.20;;
9080;SDS011;13509;50.760;6.080;2023-04-24T10:20:19;10.17;;;4.30;;
9080;SDS011;13509;50.760;6.080;2023-04-24T10:22:48;6.97;;;4.43;;
9080;SDS011;13509;50.760;6.080;2023-04-24T10:25:20;5.83;;;4.23;;
9080;SDS011;13509;50.760;6.080;2023-04-24T10:27:49;10.80;;;4.50;;
9080;SDS011;13509;50.760;6.080;2023-04-24T10:30:17;13.63;;;4.50;;
9080;SDS011;13509;50.760;6.080;2023-04-24T10:32:45;10.83;;;5.07;;
9080;SDS011;13509;50.760;6.080;2023-04-24T10:35:15;8.57;;;4.63;;
9080;SDS011;13509;50.760;6.080;2023-04-24T10:37:50;7.37;;;4.60;;
9080;SDS011;13509;50.760;6.080;2023-04-24T10:40:19;9.60;;;4.60;;
9080;SDS011;13509;50.760;6.080;2023-04-24T10:42:52;10.10;;;4.67;;
9080;SDS011;13509;50.760;6.080;2023-04-24T10:45:24;9.77;;;4.73;;
9080;SDS011;13509;50.760;6.080;2023-04-24T10:47:53;8.73;;;4.90;;
9080;SDS011;13509;50.760;6.080;2023-04-24T10:50:22;11.60;;;5.47;;
9080;SDS011;13509;50.760;6.080;2023-04-24T10:52:51;8.97;;;5.13;;
9080;SDS011;13509;50.760;6.080;2023-04-24T10:55:39;14.67;;;5.53;;
9080;SDS011;13509;50.760;6.080;2023-04-24T10:58:07;8.90;;;5.63;;
9080;SDS011;13509;50.760;6.080;2023-04-24T11:00:36;11.43;;;5.70;;
9080;SDS011;13509;50.760;6.080;2023-04-24T11:03:05;10.13;;;5.70;;
9080;SDS011;13509;50.760;6.080;2023-04-24T11:05:51;13.23;;;6.03;;
9080;SDS011;13509;50.760;6.080;2023-04-24T11:08:23;10.10;;;5.53;;
9080;SDS011;13509;50.760;6.080;2023-04-24T11:10:55;8.40;;;5.93;;
9080;SDS011;13509;50.760;6.080;2023-04-24T11:13:24;12.53;;;6.70;;
9080;SDS011;13509;50.760;6.080;2023-04-24T11:18:39;12.60;;;5.97;;
9080;SDS011;13509;50.760;6.080;2023-04-24T11:21:12;9.30;;;5.43;;
9080;SDS011;13509;50.760;6.080;2023-04-24T11:23:42;12.60;;;5.93;;
9080;SDS011;13509;50.760;6.080;2023-04-24T11:26:10;11.90;;;6.17;;
9080;SDS011;13509;50.760;6.080;2023-04-24T11:28:48;10.57;;;5.93;;
9080;SDS011;13509;50.760;6.080;2023-04-24T11:31:36;8.57;;;5.13;;
9080;SDS011;13509;50.760;6.080;2023-04-24T11:34:08;8.60;;;4.80;;
9080;SDS011;13509;50.760;6.080;2023-04-24T11:36:38;10.43;;;4.90;;
9080;SDS011;13509;50.760;6.080;2023-04-24T11:39:07;11.17;;;4.80;;
9080;SDS011;13509;50.760;6.080;2023-04-24T11:41:36;12.53;;;5.87;;
9080;SDS011;13509;50.760;6.080;2023-04-24T11:44:05;8.67;;;4.80;;
9080;SDS011;13509;50.760;6.080;2023-04-24T11:46:34;7.83;;;4.33;;
9080;SDS011;13509;50.760;6.080;2023-04-24T11:49:04;8.73;;;5.10;;
9080;SDS011;13509;50.760;6.080;2023-04-24T11:51:33;7.33;;;3.93;;
9080;SDS011;13509;50.760;6.080;2023-04-24T11:54:19;10.33;;;4.47;;
9080;SDS011;13509;50.760;6.080;2023-04-24T11:56:48;8.93;;;4.87;;
9080;SDS011;13509;50.760;6.080;2023-04-24T11:59:17;11.10;;;4.43;;
9080;SDS011;13509;50.760;6.080;2023-04-24T12:01:45;10.67;;;4.77;;
9080;SDS011;13509;50.760;6.080;2023-04-24T12:04:14;8.80;;;4.57;;
9080;SDS011;13509;50.760;6.080;2023-04-24T12:09:27;10.27;;;4.70;;
9080;SDS011;13509;50.760;6.080;2023-04-24T12:11:56;8.37;;;4.57;;
9080;SDS011;13509;50.760;6.080;2023-04-24T12:14:24;10.13;;;5.00;;
9080;SDS011;13509;50.760;6.080;2023-04-24T12:16:52;10.07;;;4.70;;
9080;SDS011;13509;50.760;6.080;2023-04-24T12:19:21;9.97;;;4.23;;
9080;SDS011;13509;50.760;6.080;2023-04-24T12:21:59;9.87;;;4.33;;
9080;SDS011;13509;50.760;6.080;2023-04-24T12:24:28;12.13;;;4.47;;
9080;SDS011;13509;50.760;6.080;2023-04-24T12:26:57;7.80;;;4.23;;
9080;SDS011;13509;50.760;6.080;2023-04-24T12:29:27;9.30;;;4.83;;
9080;SDS011;13509;50.760;6.080;2023-04-24T12:31:55;8.23;;;4.37;;
9080;SDS011;13509;50.760;6.080;2023-04-24T12:34:24;10.23;;;4.60;;
9080;SDS011;13509;50.760;6.080;2023-04-24T12:36:53;9.93;;;4.63;;
9080;SDS011;13509;50.760;6.080;2023-04-24T12:39:21;6.57;;;4.37;;
9080;SDS011;13509;50.760;6.080;2023-04-24T12:41:57;7.23;;;4.47;;
9080;SDS011;13509;50.760;6.080;2023-04-24T12:44:29;11.13;;;4.80;;
9080;SDS011;13509;50.760;6.080;2023-04-24T12:46:57;9.93;;;4.20;;
9080;SDS011;13509;50.760;6.080;2023-04-24T12:49:26;7.97;;;4.97;;
9080;SDS011;13509;50.760;6.080;2023-04-24T12:51:54;8.17;;;4.40;;
9080;SDS011;13509;50.760;6.080;2023-04-24T12:54:22;8.80;;;4.17;;
9080;SDS011;13509;50.760;6.080;2023-04-24T12:56:50;8.03;;;3.90;;
9080;SDS011;13509;50.760;6.080;2023-04-24T12:59:20;6.23;;;3.90;;
9080;SDS011;13509;50.760;6.080;2023-04-24T13:01:48;9.03;;;4.60;;
9080;SDS011;13509;50.760;6.080;2023-04-24T13:04:17;7.23;;;3.93;;
9080;SDS011;13509;50.760;6.080;2023-04-24T13:06:45;6.30;;;4.00;;
9080;SDS011;13509;50.760;6.080;2023-04-24T13:09:13;7.50;;;3.80;;
9080;SDS011;13509;50.760;6.080;2023-04-24T13:11:41;7.80;;;3.40;;
9080;SDS011;13509;50.760;6.080;2023-04-24T13:14:09;5.20;;;4.20;;
9080;SDS011;13509;50.760;6.080;2023-04-24T13:16:39;9.63;;;4.20;;
9080;SDS011;13509;50.760;6.080;2023-04-24T13:19:07;8.57;;;4.47;;
9080;SDS011;13509;50.760;6.080;2023-04-24T13:21:35;8.30;;;3.77;;
9080;SDS011;13509;50.760;6.080;2023-04-24T13:24:04;9.30;;;4.03;;
9080;SDS011;13509;50.760;6.080;2023-04-24T13:26:33;6.47;;;4.03;;
9080;SDS011;13509;50.760;6.080;2023-04-24T13:29:02;7.53;;;4.20;;
9080;SDS011;13509;50.760;6.080;2023-04-24T13:31:30;6.40;;;3.43;;
9080;SDS011;13509;50.760;6.080;2023-04-24T13:34:00;7.93;;;4.57;;
9080;SDS011;13509;50.760;6.080;2023-04-24T13:36:28;7.03;;;4.13;;
9080;SDS011;13509;50.760;6.080;2023-04-24T13:38:56;8.90;;;4.80;;
9080;SDS011;13509;50.760;6.080;2023-04-24T13:41:24;10.70;;;4.80;;
9080;SDS011;13509;50.760;6.080;2023-04-24T13:43:52;8.47;;;4.47;;
9080;SDS011;13509;50.760;6.080;2023-04-24T13:46:20;10.13;;;3.87;;
9080;SDS011;13509;50.760;6.080;2023-04-24T13:48:49;6.83;;;4.23;;
9080;SDS011;13509;50.760;6.080;2023-04-24T13:51:18;6.40;;;4.17;;
9080;SDS011;13509;50.760;6.080;2023-04-24T13:53:46;7.37;;;4.53;;
9080;SDS011;13509;50.760;6.080;2023-04-24T13:56:15;11.47;;;4.30;;
9080;SDS011;13509;50.760;6.080;2023-04-24T13:58:43;7.37;;;4.23;;
9080;SDS011;13509;50.760;6.080;2023-04-24T14:01:11;9.17;;;4.50;;
9080;SDS011;13509;50.760;6.080;2023-04-24T14:03:41;9.83;;;4.30;;
9080;SDS011;13509;50.760;6.080;2023-04-24T14:06:10;6.20;;;4.00;;
9080;SDS011;13509;50.760;6.080;2023-04-24T14:08:40;8.60;;;4.37;;
9080;SDS011;13509;50.760;6.080;2023-04-24T14:11:08;7.50;;;4.60;;
9080;SDS011;13509;50.760;6.080;2023-04-24T14:13:36;7.57;;;4.20;;
9080;SDS011;13509;50.760;6.080;2023-04-24T14:16:05;7.10;;;4.30;;
9080;SDS011;13509;50.760;6.080;2023-04-24T14:18:33;6.20;;;3.90;;
9080;SDS011;13509;50.760;6.080;2023-04-24T14:21:02;9.63;;;3.90;;
9080;SDS011;13509;50.760;6.080;2023-04-24T14:23:30;7.07;;;4.40;;
9080;SDS011;13509;50.760;6.080;2023-04-24T14:26:00;6.30;;;4.23;;
9080;SDS011;13509;50.760;6.080;2023-04-24T14:28:28;6.97;;;4.50;;
9080;SDS011;13509;50.760;6.080;2023-04-24T14:30:56;5.90;;;4.07;;
9080;SDS011;13509;50.760;6.080;2023-04-24T14:33:24;6.03;;;3.87;;
9080;SDS011;13509;50.760;6.080;2023-04-24T14:35:53;7.07;;;4.10;;
9080;SDS011;13509;50.760;6.080;2023-04-24T14:38:21;6.87;;;3.60;;
9080;SDS011;13509;50.760;6.080;2023-04-24T14:40:49;5.23;;;3.80;;
9080;SDS011;13509;50.760;6.080;2023-04-24T14:43:34;6.80;;;3.33;;
9080;SDS011;13509;50.760;6.080;2023-04-24T14:46:02;4.73;;;3.37;;
9080;SDS011;13509;50.760;6.080;2023-04-24T14:48:31;5.17;;;3.53;;
9080;SDS011;13509;50.760;6.080;2023-04-24T14:50:59;6.30;;;3.60;;
9080;SDS011;13509;50.760;6.080;2023-04-24T14:53:27;6.90;;;4.13;;
9080;SDS011;13509;50.760;6.080;2023-04-24T14:55:55;6.57;;;3.90;;
9080;SDS011;13509;50.760;6.080;2023-04-24T14:58:24;4.40;;;3.73;;
9080;SDS011;13509;50.760;6.080;2023-04-24T15:00:53;6.20;;;3.90;;
9080;SDS011;13509;50.760;6.080;2023-04-24T15:03:21;5.23;;;3.70;;
9080;SDS011;13509;50.760;6.080;2023-04-24T15:05:50;5.17;;;3.60;;
9080;SDS011;13509;50.760;6.080;2023-04-24T15:08:18;5.13;;;3.80;;
9080;SDS011;13509;50.760;6.080;2023-04-24T15:10:46;7.47;;;4.03;;
9080;SDS011;13509;50.760;6.080;2023-04-24T15:13:15;6.07;;;4.20;;
9080;SDS011;13509;50.760;6.080;2023-04-24T15:15:46;8.97;;;4.33;;
9080;SDS011;13509;50.760;6.080;2023-04-24T15:18:15;8.07;;;4.33;;